Time;durP1;ratioP1;P1;durP2;ratioP2;P2;SDS_P1;SDS_P2;PMS_P1;PMS_P2;Temp;Humidity;BMP_temperature;BMP_pressure;BME280_temperature;BME280_humidity;BME280_pressure;Samples;Min_cycle;Max_cycle;Signal;HPM_P1;HPM_P2
2021/05/16 00:00:24;;;;;;;10.45;5.85;;;;;;;9.81;84.20;97101.82;1701490;84;20875;-75
2021/05/16 00:02:52;;;;;;;11.53;6.78;;;;;;;9.82;83.82;97089.89;1701446;84;20951;-75
2021/05/16 00:05:20;;;;;;;13.83;6.83;;;;;;;9.84;84.27;97097.98;1701655;84;21093;-75
2021/05/16 00:07:46;;;;;;;11.30;6.62;;;;;;;9.88;83.55;97092.22;1701477;84;21010;-75
2021/05/16 00:10:13;;;;;;;13.18;6.15;;;;;;;9.92;83.78;97097.06;1701502;84;21528;-75
2021/05/16 00:12:39;;;;;;;9.88;6.03;;;;;;;9.93;83.90;97098.66;1701454;84;21489;-75
2021/05/16 00:15:08;;;;;;;8.73;5.03;;;;;;;9.89;84.91;97091.12;1701881;84;20974;-75
2021/05/16 00:17:33;;;;;;;10.90;5.90;;;;;;;9.88;84.74;97094.92;1701740;84;20953;-74
2021/05/16 00:19:59;;;;;;;12.10;5.87;;;;;;;9.91;83.85;97094.88;1717800;83;20931;-74
2021/05/16 00:22:25;;;;;;;13.38;6.58;;;;;;;9.90;84.10;97090.56;1718655;83;21681;-74
2021/05/16 00:24:51;;;;;;;11.57;6.28;;;;;;;9.88;83.72;97089.52;1718182;83;21503;-74
2021/05/16 00:27:17;;;;;;;11.08;7.80;;;;;;;9.86;84.23;97086.31;1718344;82;20956;-74
2021/05/16 00:29:43;;;;;;;18.90;8.10;;;;;;;9.85;83.43;97085.27;1718365;83;20856;-74
2021/05/16 00:32:09;;;;;;;10.25;5.12;;;;;;;9.86;83.64;97087.66;1718225;83;21569;-74
2021/05/16 00:34:35;;;;;;;9.38;4.40;;;;;;;9.86;83.40;97090.92;1718219;82;21098;-74
2021/05/16 00:37:01;;;;;;;20.57;9.63;;;;;;;9.88;83.13;97087.36;1718336;83;20834;-74
2021/05/16 00:39:27;;;;;;;17.42;8.25;;;;;;;9.81;83.49;97078.82;1718347;83;21577;-74
2021/05/16 00:41:53;;;;;;;10.25;5.35;;;;;;;9.71;84.64;97075.74;1689826;83;20940;-74
2021/05/16 00:44:22;;;;;;;7.92;4.83;;;;;;;9.69;83.06;97067.69;1718323;82;20916;-74
2021/05/16 00:46:49;;;;;;;9.08;4.70;;;;;;;9.61;83.17;97059.14;1718216;82;21400;-75
2021/05/16 00:49:16;;;;;;;8.05;4.42;;;;;;;9.59;83.02;97068.66;1718150;82;21036;-74
2021/05/16 00:51:43;;;;;;;7.67;4.70;;;;;;;9.54;83.11;97061.42;1718364;82;21322;-75
2021/05/16 00:54:09;;;;;;;8.75;5.12;;;;;;;9.56;83.23;97060.56;1718228;82;21055;-75
2021/05/16 00:56:36;;;;;;;6.90;4.22;;;;;;;9.48;83.58;97059.09;1689725;83;21034;-75
2021/05/16 00:59:02;;;;;;;10.75;5.62;;;;;;;9.42;83.83;97058.39;1689879;83;21104;-74
2021/05/16 01:01:28;;;;;;;11.65;5.80;;;;;;;9.40;83.48;97065.17;1718270;82;21052;-74
2021/05/16 01:03:54;;;;;;;18.32;6.67;;;;;;;9.35;84.75;97059.30;1718311;83;20961;-75
2021/05/16 01:06:21;;;;;;;10.20;5.12;;;;;;;9.31;85.07;97056.92;1718250;82;20865;-75
2021/05/16 01:08:48;;;;;;;10.50;6.22;;;;;;;9.29;83.39;97053.16;1718216;83;21090;-75
2021/05/16 01:11:15;;;;;;;10.72;6.00;;;;;;;9.25;83.68;97051.36;1718197;82;21557;-75
2021/05/16 01:13:45;;;;;;;9.10;6.12;;;;;;;9.25;83.48;97048.66;1718187;82;21070;-75
2021/05/16 01:16:11;;;;;;;10.00;5.60;;;;;;;9.30;84.01;97049.91;1718222;83;21483;-75
2021/05/16 01:18:37;;;;;;;9.88;5.97;;;;;;;9.38;84.05;97054.66;1718099;83;20928;-75
2021/05/16 01:21:03;;;;;;;10.93;6.78;;;;;;;9.40;84.08;97047.59;1718202;83;21083;-75
2021/05/16 01:23:36;;;;;;;11.08;6.30;;;;;;;9.41;84.19;97051.93;1718254;82;21581;-75
2021/05/16 01:26:01;;;;;;;12.00;7.15;;;;;;;9.42;84.09;97057.03;1717711;83;20948;-75
2021/05/16 01:28:27;;;;;;;10.72;6.97;;;;;;;9.43;83.87;97061.34;1718196;82;21210;-75
2021/05/16 01:30:53;;;;;;;6.90;4.58;;;;;;;9.46;84.12;97058.03;1718292;82;20909;-75
2021/05/16 01:33:19;;;;;;;9.43;6.00;;;;;;;9.50;83.57;97060.42;1718295;83;21027;-75
2021/05/16 01:35:45;;;;;;;7.80;5.15;;;;;;;9.50;84.60;97056.36;1718256;83;21521;-75
2021/05/16 01:38:11;;;;;;;9.00;6.33;;;;;;;9.46;84.90;97056.69;1718056;82;21023;-75
2021/05/16 01:40:40;;;;;;;9.55;6.05;;;;;;;9.45;83.46;97060.49;1718327;83;21059;-75
2021/05/16 01:43:13;;;;;;;11.85;5.67;;;;;;;9.35;83.13;97057.95;1718251;82;21067;-74
2021/05/16 01:45:41;;;;;;;11.53;5.78;;;;;;;9.27;83.37;97055.92;1718219;83;21512;-75
2021/05/16 01:48:07;;;;;;;9.30;6.62;;;;;;;9.23;83.95;97050.31;1689772;83;21234;-75
2021/05/16 01:50:35;;;;;;;6.40;5.37;;;;;;;9.24;85.68;97049.21;1689744;83;20972;-75
2021/05/16 01:53:02;;;;;;;8.73;5.63;;;;;;;9.30;85.01;97046.66;1718435;82;21400;-75
2021/05/16 01:55:28;;;;;;;11.22;6.37;;;;;;;9.30;84.00;97051.27;1718567;83;20979;-75
2021/05/16 01:57:54;;;;;;;8.78;5.42;;;;;;;9.38;84.24;97048.45;1718377;83;20959;-75
2021/05/16 02:00:27;;;;;;;5.78;4.83;;;;;;;9.35;86.04;97047.69;1718222;82;21491;-75
2021/05/16 02:02:54;;;;;;;6.97;4.25;;;;;;;9.34;85.60;97052.30;1718116;82;21377;-74
2021/05/16 02:05:19;;;;;;;9.40;4.72;;;;;;;9.36;84.57;97052.80;1690051;83;21096;-74
2021/05/16 02:07:49;;;;;;;8.73;4.83;;;;;;;9.29;84.92;97049.66;1718254;83;20896;-74
2021/05/16 02:10:17;;;;;;;7.75;5.00;;;;;;;9.29;84.51;97046.41;1718189;83;21444;-74
2021/05/16 02:12:43;;;;;;;10.25;5.62;;;;;;;9.30;84.60;97047.21;1718114;83;21011;-74
2021/05/16 02:15:11;;;;;;;10.75;5.45;;;;;;;9.32;84.00;97051.25;1690011;83;21040;-74
2021/05/16 02:17:41;;;;;;;7.97;4.67;;;;;;;9.30;84.37;97053.42;1718254;82;21023;-74
2021/05/16 02:20:10;;;;;;;12.58;6.15;;;;;;;9.33;84.05;97052.05;1731649;82;21086;-75
2021/05/16 02:22:36;;;;;;;13.05;7.25;;;;;;;9.41;84.11;97051.37;1736549;82;21078;-75
2021/05/16 02:25:04;;;;;;;8.48;5.25;;;;;;;9.49;84.67;97057.47;1711950;82;20926;-75
2021/05/16 02:27:30;;;;;;;8.88;5.62;;;;;;;9.57;83.98;97054.09;1736897;82;21499;-75
2021/05/16 02:29:56;;;;;;;11.28;6.50;;;;;;;9.58;85.13;97053.53;1737150;82;20975;-75
2021/05/16 02:32:22;;;;;;;9.13;4.47;;;;;;;9.61;84.34;97053.73;1736815;82;20899;-75
2021/05/16 02:34:48;;;;;;;10.85;6.47;;;;;;;9.65;83.95;97057.98;1737022;81;20942;-75
2021/05/16 02:37:14;;;;;;;12.60;7.65;;;;;;;9.72;83.93;97056.26;1736805;82;21797;-75
2021/05/16 02:39:41;;;;;;;9.48;5.72;;;;;;;9.74;84.01;97056.75;1736824;82;20959;-75
2021/05/16 02:42:08;;;;;;;10.55;5.72;;;;;;;9.71;83.82;97065.47;1711732;82;21532;-75
2021/05/16 02:44:34;;;;;;;9.73;5.90;;;;;;;9.65;83.94;97062.05;1736841;82;20944;-75
2021/05/16 02:47:01;;;;;;;9.85;5.87;;;;;;;9.64;84.90;97058.29;1737072;82;21057;-75
2021/05/16 02:49:27;;;;;;;11.35;6.50;;;;;;;9.65;84.22;97061.24;1737024;82;21260;-75
2021/05/16 02:51:53;;;;;;;9.43;6.90;;;;;;;9.60;84.64;97062.95;1737115;82;20887;-75
2021/05/16 02:54:19;;;;;;;10.75;7.17;;;;;;;9.61;84.57;97056.44;1737015;82;20932;-75
2021/05/16 02:56:44;;;;;;;9.48;5.75;;;;;;;9.59;85.23;97060.00;1737567;81;20967;-75
2021/05/16 02:59:10;;;;;;;11.85;6.37;;;;;;;9.60;84.66;97049.98;1737028;82;20868;-75
2021/05/16 03:01:36;;;;;;;11.18;5.87;;;;;;;9.63;85.12;97052.08;1737246;81;20863;-75
2021/05/16 03:04:03;;;;;;;10.82;5.87;;;;;;;9.68;84.96;97049.84;1736905;82;20971;-75
2021/05/16 03:06:29;;;;;;;8.75;5.60;;;;;;;9.71;84.78;97053.30;1712020;82;21063;-75
2021/05/16 03:08:54;;;;;;;9.90;5.15;;;;;;;9.68;84.50;97043.89;1737095;82;20908;-75
2021/05/16 03:11:20;;;;;;;12.80;6.67;;;;;;;9.66;84.19;97042.59;1737180;81;20979;-75
2021/05/16 03:13:46;;;;;;;11.33;7.20;;;;;;;9.70;84.10;97044.94;1736991;82;20976;-75
2021/05/16 03:16:12;;;;;;;14.28;9.15;;;;;;;9.72;84.12;97040.03;1737107;82;20962;-75
2021/05/16 03:18:38;;;;;;;12.93;8.73;;;;;;;9.80;84.15;97040.14;1737060;82;21030;-75
2021/05/16 03:21:04;;;;;;;8.50;5.83;;;;;;;9.90;84.35;97034.54;1736972;82;20899;-75
2021/05/16 03:23:30;;;;;;;9.75;6.00;;;;;;;10.01;84.67;97034.38;1737062;82;21023;-75
2021/05/16 03:26:00;;;;;;;10.88;5.50;;;;;;;10.02;85.21;97034.07;1737096;82;21726;-75
2021/05/16 03:28:24;;;;;;;11.80;5.37;;;;;;;10.08;84.08;97040.17;1736560;81;21003;-75
2021/05/16 03:30:50;;;;;;;9.93;6.70;;;;;;;10.05;83.87;97040.23;1736977;82;21454;-75
2021/05/16 03:33:16;;;;;;;11.68;6.45;;;;;;;10.01;83.77;97039.23;1736950;82;20864;-75
2021/05/16 03:35:42;;;;;;;9.90;6.72;;;;;;;9.98;83.65;97035.75;1737038;82;20903;-75
2021/05/16 03:38:08;;;;;;;13.50;8.08;;;;;;;9.96;83.74;97043.37;1737147;82;20984;-75
2021/05/16 03:40:34;;;;;;;11.93;8.15;;;;;;;10.03;83.59;97043.80;1736917;82;20907;-75
2021/05/16 03:42:59;;;;;;;10.63;6.80;;;;;;;10.08;83.51;97042.35;1736931;82;20948;-75
2021/05/16 03:45:26;;;;;;;11.00;6.42;;;;;;;10.05;83.59;97041.58;1736941;82;20975;-75
2021/05/16 03:47:52;;;;;;;9.88;6.67;;;;;;;9.98;83.58;97041.72;1737168;82;20971;-75
2021/05/16 03:50:18;;;;;;;10.40;6.40;;;;;;;10.03;84.59;97041.08;1737009;81;21857;-75
2021/05/16 03:52:44;;;;;;;10.13;5.83;;;;;;;10.11;84.23;97033.63;1711876;82;20852;-75
2021/05/16 03:55:11;;;;;;;8.00;5.67;;;;;;;10.13;84.03;97036.83;1737438;81;20909;-75
2021/05/16 03:57:37;;;;;;;11.48;5.05;;;;;;;10.02;84.75;97034.07;1736918;82;21517;-75
2021/05/16 04:00:06;;;;;;;9.43;5.10;;;;;;;10.04;84.40;97039.18;1736932;82;20895;-75
2021/05/16 04:02:32;;;;;;;9.53;5.53;;;;;;;10.11;84.16;97042.30;1737158;82;20997;-75
2021/05/16 04:04:58;;;;;;;9.98;5.60;;;;;;;10.11;84.55;97036.33;1737027;81;21592;-75
2021/05/16 04:07:24;;;;;;;10.55;5.90;;;;;;;10.13;85.59;97025.20;1737040;81;21510;-75
2021/05/16 04:09:49;;;;;;;11.93;7.75;;;;;;;10.20;85.24;97029.66;1737076;82;20887;-75
2021/05/16 04:12:16;;;;;;;10.95;6.22;;;;;;;10.23;86.01;97034.50;1737398;82;20986;-75
2021/05/16 04:14:44;;;;;;;8.83;5.55;;;;;;;10.19;86.10;97032.12;1737013;81;21767;-75
2021/05/16 04:17:11;;;;;;;8.83;5.30;;;;;;;10.27;84.59;97038.22;1736837;81;21499;-75
2021/05/16 04:19:37;;;;;;;15.23;7.60;;;;;;;10.27;84.08;97040.13;1731744;82;21055;-75
2021/05/16 04:22:03;;;;;;;9.58;4.60;;;;;;;10.30;83.82;97039.52;1718436;82;20988;-75
2021/05/16 04:24:29;;;;;;;11.05;5.30;;;;;;;10.26;84.00;97025.79;1718373;82;21063;-75
2021/05/16 04:26:55;;;;;;;8.70;5.53;;;;;;;10.32;84.24;97033.24;1718311;83;21835;-75
2021/05/16 04:29:21;;;;;;;10.03;4.58;;;;;;;10.38;84.54;97032.05;1718285;83;21586;-75
2021/05/16 04:31:47;;;;;;;6.78;4.08;;;;;;;10.45;84.28;97034.60;1718363;83;20901;-75
2021/05/16 04:34:13;;;;;;;5.37;4.58;;;;;;;10.56;84.28;97030.31;1718280;82;21059;-75
2021/05/16 04:36:39;;;;;;;7.35;4.50;;;;;;;10.63;84.25;97032.88;1718331;83;20948;-75
2021/05/16 04:39:06;;;;;;;7.87;5.08;;;;;;;10.66;83.95;97030.09;1718321;83;21254;-75
2021/05/16 04:41:33;;;;;;;6.28;4.17;;;;;;;10.72;84.32;97041.08;1718258;82;21040;-75
2021/05/16 04:44:00;;;;;;;7.55;4.70;;;;;;;10.83;84.47;97033.52;1718204;83;21028;-75
2021/05/16 04:46:26;;;;;;;10.23;4.67;;;;;;;10.89;83.88;97036.37;1718196;82;21118;-75
2021/05/16 04:48:53;;;;;;;10.15;5.67;;;;;;;10.86;84.80;97034.29;1718234;82;21114;-75
2021/05/16 04:51:19;;;;;;;7.70;6.15;;;;;;;10.93;84.80;97025.96;1718545;82;21177;-75
2021/05/16 04:53:45;;;;;;;9.53;5.60;;;;;;;11.04;84.21;97031.17;1718306;83;20873;-75
2021/05/16 04:56:11;;;;;;;10.75;5.92;;;;;;;11.16;84.01;97034.94;1718449;82;20952;-75
2021/05/16 04:58:37;;;;;;;10.53;6.95;;;;;;;11.32;84.19;97031.87;1718399;82;20967;-75
2021/05/16 05:01:05;;;;;;;12.90;7.10;;;;;;;11.41;84.20;97036.80;1718267;83;20936;-75
2021/05/16 05:03:31;;;;;;;9.60;6.78;;;;;;;11.47;84.32;97038.28;1718655;82;21454;-75
2021/05/16 05:05:57;;;;;;;16.40;6.55;;;;;;;11.54;83.96;97032.67;1718137;82;21035;-75
2021/05/16 05:08:25;;;;;;;9.13;5.58;;;;;;;11.59;84.75;97031.73;1718205;83;20976;-75
2021/05/16 05:10:51;;;;;;;8.65;6.72;;;;;;;11.69;83.62;97027.95;1718203;83;21460;-75
2021/05/16 05:13:17;;;;;;;9.45;6.70;;;;;;;11.73;83.78;97031.11;1718213;82;21050;-75
2021/05/16 05:15:43;;;;;;;7.60;5.65;;;;;;;11.78;83.21;97029.59;1718193;83;20979;-75
2021/05/16 05:18:09;;;;;;;11.75;5.37;;;;;;;11.87;82.98;97029.67;1718288;83;20872;-75
2021/05/16 05:20:35;;;;;;;10.53;6.40;;;;;;;11.91;82.67;97025.80;1693526;83;20976;-75
2021/05/16 05:23:01;;;;;;;7.12;4.70;;;;;;;11.97;82.92;97033.50;1723639;83;20996;-75
2021/05/16 05:25:28;;;;;;;8.40;5.90;;;;;;;12.07;82.50;97034.58;1723752;81;20951;-75
2021/05/16 05:27:55;;;;;;;9.73;5.05;;;;;;;12.07;82.66;97036.50;1724000;83;21100;-75
2021/05/16 05:30:23;;;;;;;11.53;5.72;;;;;;;12.19;82.46;97041.33;1723740;82;20990;-75
2021/05/16 05:32:49;;;;;;;9.88;4.90;;;;;;;12.20;82.51;97032.86;1723577;82;21001;-75
2021/05/16 05:35:15;;;;;;;8.25;5.10;;;;;;;12.26;82.47;97035.69;1723973;83;20884;-75
2021/05/16 05:37:41;;;;;;;7.05;5.03;;;;;;;12.28;82.31;97035.37;1723741;82;20965;-75
2021/05/16 05:40:08;;;;;;;7.72;5.35;;;;;;;12.26;82.36;97032.97;1696790;83;21869;-75
2021/05/16 05:42:34;;;;;;;7.40;5.12;;;;;;;12.29;82.51;97033.69;1723604;82;20952;-75
2021/05/16 05:45:00;;;;;;;6.47;5.30;;;;;;;12.38;82.25;97032.36;1723675;82;21019;-75
2021/05/16 05:47:26;;;;;;;7.10;4.90;;;;;;;12.46;82.22;97030.79;1723590;82;21501;-75
2021/05/16 05:49:53;;;;;;;9.08;4.72;;;;;;;12.53;82.29;97036.01;1723604;83;20920;-75
2021/05/16 05:52:19;;;;;;;8.53;5.72;;;;;;;12.69;82.10;97033.66;1723558;82;21515;-75
2021/05/16 05:54:45;;;;;;;6.60;3.75;;;;;;;12.78;81.83;97037.75;1723620;82;21072;-75
2021/05/16 05:57:11;;;;;;;5.92;4.22;;;;;;;12.96;81.49;97040.16;1723645;82;20949;-75
2021/05/16 05:59:37;;;;;;;9.90;5.80;;;;;;;13.02;80.79;97034.02;1723814;83;20955;-75
2021/05/16 06:02:03;;;;;;;7.65;5.45;;;;;;;13.07;80.44;97040.64;1723575;82;20896;-75
2021/05/16 06:04:30;;;;;;;10.98;7.30;;;;;;;13.10;79.99;97040.59;1723594;83;21086;-75
2021/05/16 06:06:56;;;;;;;16.87;7.75;;;;;;;13.13;79.61;97035.86;1723529;83;21653;-75
2021/05/16 06:09:22;;;;;;;7.60;4.78;;;;;;;13.13;80.13;97032.58;1723694;83;20916;-76
2021/05/16 06:11:48;;;;;;;8.53;4.70;;;;;;;13.31;79.75;97035.33;1724023;83;20888;-75
2021/05/16 06:14:14;;;;;;;6.17;4.97;;;;;;;13.30;79.51;97038.61;1723781;82;20927;-75
2021/05/16 06:16:40;;;;;;;6.15;4.10;;;;;;;13.30;79.75;97037.25;1723595;83;21599;-75
2021/05/16 06:19:06;;;;;;;6.28;5.15;;;;;;;13.48;80.13;97036.11;1723631;83;20917;-75
2021/05/16 06:21:32;;;;;;;5.65;3.95;;;;;;;13.62;79.46;97035.14;1705869;83;20898;-75
2021/05/16 06:26:26;;;;;;;;;;;;;;;13.76;79.13;97037.92;1704013;83;21053;-74
2021/05/16 06:28:52;;;;;;;5.70;4.62;;;;;;;13.83;78.68;97039.56;1701536;83;21665;-74
2021/05/16 06:31:19;;;;;;;8.70;5.25;;;;;;;13.76;78.99;97039.29;1701498;84;20988;-74
2021/05/16 06:33:45;;;;;;;7.72;4.17;;;;;;;13.81;79.23;97036.37;1701559;84;21006;-75
2021/05/16 06:36:11;;;;;;;5.20;3.58;;;;;;;13.86;79.03;97037.34;1701598;84;20874;-75
2021/05/16 06:38:37;;;;;;;13.98;8.83;;;;;;;13.94;79.24;97036.52;1701495;84;21004;-75
2021/05/16 06:41:03;;;;;;;13.00;7.50;;;;;;;14.09;79.12;97039.48;1701507;84;20963;-75
2021/05/16 06:43:29;;;;;;;15.93;9.68;;;;;;;14.01;78.66;97037.59;1701631;84;20886;-75
2021/05/16 06:45:55;;;;;;;11.33;8.43;;;;;;;13.99;78.91;97039.84;1701577;84;20945;-75
2021/05/16 06:48:21;;;;;;;17.17;10.32;;;;;;;14.02;78.83;97035.70;1701526;83;20851;-75
2021/05/16 06:50:47;;;;;;;13.83;7.92;;;;;;;14.11;79.63;97035.90;1701548;84;20945;-75
2021/05/16 06:53:13;;;;;;;7.83;5.53;;;;;;;14.30;79.00;97034.70;1701586;83;21166;-75
2021/05/16 06:55:39;;;;;;;6.33;3.95;;;;;;;14.35;78.78;97031.21;1701647;84;20937;-75
2021/05/16 06:58:04;;;;;;;9.93;5.00;;;;;;;14.33;78.75;97035.40;1701580;84;21524;-75
2021/05/16 07:00:31;;;;;;;6.40;4.47;;;;;;;14.34;79.19;97036.42;1701676;84;20854;-75
2021/05/16 07:02:57;;;;;;;11.18;9.48;;;;;;;14.45;79.01;97036.08;1701508;84;20997;-75
2021/05/16 07:05:23;;;;;;;11.28;7.83;;;;;;;14.47;78.46;97041.47;1701552;84;21177;-75
2021/05/16 07:07:48;;;;;;;7.08;4.90;;;;;;;14.50;77.64;97040.00;1701631;84;20913;-75
2021/05/16 07:10:15;;;;;;;9.35;5.50;;;;;;;14.45;77.37;97036.08;1701575;83;21615;-75
2021/05/16 07:12:41;;;;;;;8.18;5.87;;;;;;;14.53;76.68;97036.07;1701488;84;20970;-75
2021/05/16 07:15:13;;;;;;;69.65;48.42;;;;;;;14.51;76.69;97036.14;1701605;84;20906;-75
2021/05/16 07:17:37;;;;;;;37.05;26.45;;;;;;;14.54;76.73;97037.66;1701223;84;21211;-75
2021/05/16 07:20:04;;;;;;;19.98;11.48;;;;;;;14.54;76.87;97039.03;1701553;83;20942;-75
2021/05/16 07:22:30;;;;;;;5.97;4.33;;;;;;;14.65;76.83;97038.08;1701496;84;21537;-75
2021/05/16 07:24:56;;;;;;;4.75;3.67;;;;;;;14.76;76.84;97031.67;1701595;84;21500;-75
2021/05/16 07:27:22;;;;;;;7.25;4.22;;;;;;;14.97;76.69;97033.08;1701570;84;20910;-75
2021/05/16 07:29:49;;;;;;;6.97;4.72;;;;;;;15.18;76.59;97033.87;1701507;83;21106;-75
2021/05/16 07:32:15;;;;;;;8.30;4.53;;;;;;;15.27;75.95;97033.23;1701443;84;20910;-75
2021/05/16 07:34:41;;;;;;;8.93;4.87;;;;;;;15.39;75.89;97029.78;1701561;84;20981;-75
2021/05/16 07:37:08;;;;;;;8.68;5.50;;;;;;;15.35;75.13;97027.47;1701510;84;20883;-75
2021/05/16 07:39:34;;;;;;;9.28;5.42;;;;;;;15.39;75.32;97029.21;1701586;83;21005;-75
2021/05/16 07:42:00;;;;;;;7.22;5.35;;;;;;;15.32;74.81;97028.95;1701552;83;21489;-75
2021/05/16 07:44:26;;;;;;;11.45;6.72;;;;;;;15.24;74.96;97032.55;1701511;84;20894;-75
2021/05/16 07:46:52;;;;;;;12.07;6.92;;;;;;;15.32;75.18;97032.24;1701548;84;20962;-75
2021/05/16 07:49:18;;;;;;;22.25;16.20;;;;;;;15.35;74.12;97037.02;1702088;84;20958;-75
2021/05/16 07:51:43;;;;;;;19.02;12.80;;;;;;;15.31;73.48;97032.81;1701589;84;21021;-75
2021/05/16 07:54:09;;;;;;;13.80;9.95;;;;;;;15.41;73.99;97028.87;1701556;84;21794;-75
2021/05/16 07:56:35;;;;;;;14.65;9.90;;;;;;;15.57;73.67;97035.87;1701555;83;20866;-75
2021/05/16 07:59:02;;;;;;;12.23;9.73;;;;;;;15.53;73.74;97037.89;1701614;84;20922;-75
2021/05/16 08:01:28;;;;;;;34.35;19.87;;;;;;;15.61;73.83;97043.08;1701531;84;21525;-75
2021/05/16 08:03:54;;;;;;;63.58;43.90;;;;;;;15.72;73.15;97048.38;1701434;84;20982;-74
2021/05/16 08:06:20;;;;;;;11.03;6.75;;;;;;;15.60;73.41;97042.02;1701595;84;20985;-75
2021/05/16 08:08:46;;;;;;;4.97;3.40;;;;;;;15.63;72.76;97046.27;1701547;84;20894;-75
2021/05/16 08:11:12;;;;;;;7.62;5.60;;;;;;;15.71;72.33;97043.22;1701488;84;21533;-75
2021/05/16 08:13:38;;;;;;;8.08;6.03;;;;;;;15.70;72.40;97041.63;1701422;83;21021;-75
2021/05/16 08:16:05;;;;;;;7.62;3.20;;;;;;;15.68;72.43;97041.97;1701450;84;20894;-75
2021/05/16 08:18:30;;;;;;;1.90;1.35;;;;;;;15.78;71.41;97043.48;1701488;83;21651;-75
2021/05/16 08:20:56;;;;;;;2.50;1.60;;;;;;;15.65;70.86;97045.38;1701405;82;20986;-75
2021/05/16 08:23:22;;;;;;;2.35;1.40;;;;;;;15.56;70.37;97047.94;1701529;84;20922;-75
2021/05/16 08:25:48;;;;;;;1.40;1.10;;;;;;;15.46;70.37;97058.67;1701636;83;20945;-75
2021/05/16 08:28:14;;;;;;;2.72;1.40;;;;;;;15.35;69.22;97058.86;1701386;84;21512;-75
2021/05/16 08:30:41;;;;;;;2.70;1.45;;;;;;;15.16;70.02;97062.06;1701501;84;21247;-75
2021/05/16 08:33:06;;;;;;;2.92;1.47;;;;;;;15.11;70.44;97067.70;1701391;83;21056;-75
2021/05/16 08:35:34;;;;;;;2.52;1.37;;;;;;;15.08;70.64;97068.38;1701583;84;20989;-75
2021/05/16 08:38:00;;;;;;;4.20;2.50;;;;;;;15.06;70.67;97065.98;1701355;83;21041;-75
2021/05/16 08:40:26;;;;;;;2.22;1.42;;;;;;;15.04;71.39;97064.70;1701955;83;21006;-75
2021/05/16 08:42:52;;;;;;;4.60;2.05;;;;;;;15.07;71.62;97063.48;1701468;84;21288;-75
2021/05/16 08:45:18;;;;;;;2.35;1.85;;;;;;;15.18;71.25;97066.61;1701377;83;21622;-75
2021/05/16 08:47:45;;;;;;;2.05;1.10;;;;;;;15.16;71.09;97068.31;1701349;84;20981;-75
2021/05/16 08:50:16;;;;;;;2.33;1.42;;;;;;;15.19;68.99;97062.75;1701513;84;21481;-75
2021/05/16 08:52:42;;;;;;;3.22;1.82;;;;;;;15.08;68.30;97065.08;1701514;84;20879;-74
2021/05/16 08:55:10;;;;;;;2.80;1.98;;;;;;;14.95;68.76;97060.66;1701527;83;21256;-74
2021/05/16 08:57:35;;;;;;;2.20;1.57;;;;;;;14.93;69.23;97062.92;1701278;84;20962;-74
2021/05/16 09:00:18;;;;;;;4.30;3.20;;;;;;;15.08;69.70;97061.55;1701507;84;20890;-74
2021/05/16 09:03:14;;;;;;;4.75;2.52;;;;;;;15.26;70.71;97060.29;1701260;84;21032;-74
2021/05/16 09:05:50;;;;;;;5.42;4.20;;;;;;;15.49;69.98;97057.45;1701598;84;21038;-75
2021/05/16 09:08:22;;;;;;;4.85;3.90;;;;;;;15.78;69.35;97059.87;1675565;84;21729;-74
2021/05/16 09:10:56;;;;;;;1.90;1.22;;;;;;;15.89;69.05;97057.50;1701338;84;20989;-75
2021/05/16 09:13:23;;;;;;;2.25;1.52;;;;;;;15.95;69.30;97059.69;1701460;84;20951;-74
2021/05/16 09:16:12;;;;;;;1.82;1.35;;;;;;;16.11;69.54;97061.78;1701542;84;20989;-74
2021/05/16 09:18:46;;;;;;;2.02;1.50;;;;;;;16.27;68.51;97056.69;1701693;84;20990;-74
2021/05/16 09:21:35;;;;;;;4.17;2.77;;;;;;;16.47;68.12;97062.39;1701307;83;21414;-75
2021/05/16 09:24:07;;;;;;;4.10;2.83;;;;;;;16.73;66.84;97067.56;1701405;84;21517;-75
2021/05/16 09:26:39;;;;;;;1.87;1.40;;;;;;;16.99;65.90;97069.36;1701453;84;20958;-74
2021/05/16 09:29:29;;;;;;;2.62;1.30;;;;;;;16.95;62.33;97073.14;1699472;84;20966;-75
2021/05/16 09:31:58;;;;;;;2.47;1.47;;;;;;;17.14;64.84;97067.86;1701497;84;20950;-74
2021/05/16 09:34:23;;;;;;;2.25;0.72;;;;;;;17.30;62.58;97070.69;1701607;84;21151;-74
2021/05/16 09:36:50;;;;;;;1.12;1.00;;;;;;;17.19;60.31;97067.64;1701298;84;20877;-74
2021/05/16 09:39:30;;;;;;;2.30;1.50;;;;;;;17.05;61.82;97066.63;1701570;83;21054;-74
2021/05/16 09:42:08;;;;;;;4.03;2.10;;;;;;;17.14;62.14;97064.55;1701372;84;21065;-75
2021/05/16 09:44:44;;;;;;;3.50;1.85;;;;;;;16.91;63.06;97066.97;1701626;84;21010;-75
2021/05/16 09:47:27;;;;;;;2.47;1.70;;;;;;;16.61;64.63;97069.13;1701400;83;21107;-75
2021/05/16 09:50:01;;;;;;;2.20;1.95;;;;;;;16.40;66.02;97071.16;1701339;84;21025;-75
2021/05/16 09:52:32;;;;;;;2.77;1.75;;;;;;;16.27;65.61;97070.92;1701534;84;21509;-75
2021/05/16 09:55:12;;;;;;;2.90;2.10;;;;;;;16.10;66.36;97069.75;1701359;84;21073;-74
2021/05/16 09:57:42;;;;;;;5.17;1.60;;;;;;;16.05;67.18;97072.12;1701344;84;21018;-74
2021/05/16 10:00:11;;;;;;;2.65;2.00;;;;;;;15.83;68.84;97073.89;1701469;84;21091;-74
2021/05/16 10:02:38;;;;;;;4.03;2.17;;;;;;;15.92;69.29;97071.30;1701740;83;21009;-74
2021/05/16 10:05:07;;;;;;;2.80;1.98;;;;;;;16.11;70.20;97072.71;1701454;84;21474;-74
2021/05/16 10:07:33;;;;;;;4.03;2.72;;;;;;;16.33;70.10;97073.11;1701473;84;21438;-74
2021/05/16 10:09:59;;;;;;;3.27;2.12;;;;;;;16.54;69.29;97071.63;1701506;84;21017;-74
2021/05/16 10:12:25;;;;;;;3.33;1.60;;;;;;;16.58;69.23;97075.30;1701658;84;20970;-74
2021/05/16 10:15:13;;;;;;;3.15;1.87;;;;;;;16.73;68.22;97074.39;1701514;83;20913;-74
2021/05/16 10:17:42;;;;;;;4.22;1.77;;;;;;;16.44;68.33;97077.55;1701514;84;21474;-75
2021/05/16 10:20:11;;;;;;;1.95;1.50;;;;;;;16.47;68.95;97074.70;1700965;84;21489;-75
2021/05/16 10:22:39;;;;;;;4.47;2.10;;;;;;;16.51;69.04;97075.06;1685845;83;21112;-75
2021/05/16 10:25:05;;;;;;;3.67;2.37;;;;;;;16.65;67.34;97082.34;1718219;83;21024;-75
2021/05/16 10:27:43;;;;;;;4.22;1.47;;;;;;;16.67;67.13;97077.92;1718656;83;21397;-75
2021/05/16 10:30:12;;;;;;;3.37;2.00;;;;;;;16.64;66.93;97074.48;1718530;83;21488;-75
2021/05/16 10:32:49;;;;;;;3.05;1.47;;;;;;;16.42;66.53;97079.04;1718236;83;21551;-75
2021/05/16 10:35:16;;;;;;;6.03;2.00;;;;;;;16.32;67.22;97087.91;1692372;83;21464;-75
2021/05/16 10:37:53;;;;;;;3.02;1.80;;;;;;;16.28;67.41;97079.35;1718267;82;21094;-76
2021/05/16 10:40:31;;;;;;;2.15;1.52;;;;;;;16.17;68.18;97074.10;1689612;83;21032;-76
2021/05/16 10:43:04;;;;;;;4.35;1.52;;;;;;;16.18;68.00;97075.70;1718292;83;22717;-76
2021/05/16 10:45:37;;;;;;;6.28;3.50;;;;;;;16.04;68.32;97080.89;1714168;83;20936;-75
2021/05/16 10:48:20;;;;;;;24.60;11.75;;;;;;;15.95;68.89;97081.55;1718187;83;21079;-75
2021/05/16 10:50:57;;;;;;;18.95;11.05;;;;;;;15.90;69.51;97079.05;1718442;83;21148;-75
2021/05/16 10:53:34;;;;;;;6.42;3.85;;;;;;;15.94;69.74;97080.52;1718112;83;21004;-74
2021/05/16 10:56:12;;;;;;;4.87;2.65;;;;;;;15.93;69.94;97078.93;1717500;83;21052;-75
2021/05/16 10:58:44;;;;;;;37.23;25.05;;;;;;;15.98;70.33;97082.80;1718065;82;21068;-75
2021/05/16 11:01:20;;;;;;;3.95;2.20;;;;;;;16.02;70.07;97085.90;1718216;83;21535;-75
2021/05/16 11:03:56;;;;;;;29.40;14.93;;;;;;;15.99;69.87;97081.69;1716673;83;21106;-74
2021/05/16 11:06:40;;;;;;;6.47;5.10;;;;;;;16.05;69.75;97081.11;1718592;83;21060;-75
2021/05/16 11:09:09;;;;;;;5.35;3.83;;;;;;;16.10;69.17;97081.48;1717853;83;21087;-76
2021/05/16 11:11:50;;;;;;;;;;;;;;;16.05;69.09;97074.28;1720885;83;21079;-76
2021/05/16 11:14:20;;;;;;;6.97;3.62;;;;;;;16.06;68.66;97081.37;1718439;83;20259;-74
2021/05/16 11:16:53;;;;;;;8.43;4.35;;;;;;;16.05;69.28;97078.38;1718374;83;21638;-75
2021/05/16 11:19:22;;;;;;;5.35;2.80;;;;;;;16.18;69.33;97079.22;1717607;83;20988;-74
2021/05/16 11:21:48;;;;;;;6.53;4.45;;;;;;;16.21;69.65;97075.80;1718115;82;21662;-75
2021/05/16 11:24:16;;;;;;;3.80;2.87;;;;;;;16.26;69.82;97081.06;1718277;83;20865;-75
2021/05/16 11:26:43;;;;;;;4.20;2.62;;;;;;;16.21;69.94;97075.80;1718242;82;20893;-75
2021/05/16 11:29:09;;;;;;;6.33;3.08;;;;;;;16.18;69.54;97077.06;1718291;83;21131;-75
2021/05/16 11:31:35;;;;;;;4.60;2.58;;;;;;;16.18;69.23;97078.43;1690292;83;20920;-75
2021/05/16 11:34:04;;;;;;;4.62;2.35;;;;;;;16.20;69.38;97074.78;1718390;83;20932;-75
2021/05/16 11:36:34;;;;;;;9.70;3.70;;;;;;;16.23;69.00;97078.98;1718309;83;21068;-75
2021/05/16 11:39:01;;;;;;;3.50;1.52;;;;;;;16.18;68.94;97079.22;1718380;82;21032;-75